Time;durP1;ratioP1;P1;durP2;ratioP2;P2;SDS_P1;SDS_P2;PMS_P1;PMS_P2;Temp;Humidity;BMP_temperature;BMP_pressure;BME280_temperature;BME280_humidity;BME280_pressure;Samples;Min_cycle;Max_cycle;Signal;HPM_P1;HPM_P2
2023/01/13 00:01:55;;;;;;;0.90;0.90;;;;;;;10.51;60.48;100361.88;5056784;28;20044;-81
2023/01/13 00:04:21;;;;;;;0.10;0.10;;;;;;;10.36;60.94;100347.28;5055734;28;20017;-82
2023/01/13 00:06:47;;;;;;;2.63;0.65;;;;;;;10.38;61.23;100351.66;5058371;28;20104;-82
2023/01/13 00:09:14;;;;;;;0.10;0.10;;;;;;;10.32;61.61;100350.03;5054560;28;20055;-82
2023/01/13 00:11:40;;;;;;;0.45;0.45;;;;;;;10.39;61.93;100362.22;5050441;28;20021;-82
2023/01/13 00:14:06;;;;;;;0.10;0.10;;;;;;;10.33;62.33;100355.28;5057779;28;20036;-82
2023/01/13 00:16:32;;;;;;;0.60;0.60;;;;;;;10.23;63.12;100367.03;5057443;28;20025;-82
2023/01/13 00:18:58;;;;;;;0.10;0.10;;;;;;;10.20;64.01;100377.69;5057388;28;20041;-82
2023/01/13 00:21:24;;;;;;;0.10;0.10;;;;;;;10.15;64.26;100369.00;5058635;28;20029;-82
2023/01/13 00:23:53;;;;;;;0.20;0.20;;;;;;;10.25;64.03;100386.38;5057100;28;20124;-82
2023/01/13 00:26:22;;;;;;;4.40;0.82;;;;;;;10.30;64.67;100368.59;5054083;28;20362;-82
2023/01/13 00:28:49;;;;;;;0.10;0.10;;;;;;;10.38;64.60;100371.09;5057052;28;20021;-82
2023/01/13 00:31:18;;;;;;;1.95;1.85;;;;;;;10.53;64.67;100369.81;5051635;28;20055;-82
2023/01/13 00:33:44;;;;;;;0.10;0.10;;;;;;;10.45;64.84;100361.19;5053942;28;20535;-82
2023/01/13 00:36:13;;;;;;;0.10;0.10;;;;;;;10.56;65.38;100359.13;5050784;28;20059;-81
2023/01/13 00:38:41;;;;;;;5.97;0.88;;;;;;;10.57;65.41;100355.56;5050039;28;20115;-81
2023/01/13 00:41:11;;;;;;;0.30;0.30;;;;;;;10.64;65.43;100354.47;5054019;28;20021;-81
2023/01/13 00:43:38;;;;;;;0.10;0.10;;;;;;;10.67;65.76;100348.22;5068452;28;20089;-81
2023/01/13 00:46:06;;;;;;;0.28;0.28;;;;;;;10.72;65.79;100343.66;5065124;28;20051;-82
2023/01/13 00:48:33;;;;;;;0.30;0.30;;;;;;;10.65;66.25;100342.97;5055126;28;20021;-81
2023/01/13 00:51:02;;;;;;;0.20;0.20;;;;;;;10.70;66.46;100344.63;5056006;28;20037;-82
2023/01/13 00:53:32;;;;;;;0.10;0.10;;;;;;;10.65;66.56;100348.28;5054460;28;20021;-81
2023/01/13 00:56:02;;;;;;;0.10;0.10;;;;;;;10.63;66.57;100341.25;5055831;28;20037;-82
2023/01/13 00:58:32;;;;;;;0.10;0.10;;;;;;;10.64;66.81;100340.34;5056686;28;20548;-82
2023/01/13 01:01:00;;;;;;;1.25;1.25;;;;;;;10.58;66.72;100325.50;5056484;28;20037;-82
2023/01/13 01:03:28;;;;;;;1.52;1.42;;;;;;;10.52;66.97;100329.19;5056252;28;20081;-82
2023/01/13 01:05:55;;;;;;;0.20;0.20;;;;;;;10.44;66.76;100319.72;5058382;28;20049;-82
2023/01/13 01:08:21;;;;;;;3.90;0.82;;;;;;;10.50;66.82;100315.13;5066032;28;20047;-81
2023/01/13 01:10:47;;;;;;;0.17;0.17;;;;;;;10.41;66.99;100325.97;5063193;28;20055;-81
2023/01/13 01:13:16;;;;;;;0.20;0.20;;;;;;;10.38;67.08;100317.25;5063213;28;20029;-81
2023/01/13 01:15:43;;;;;;;1.77;1.75;;;;;;;10.28;67.44;100328.06;5058015;28;20552;-81
2023/01/13 01:18:09;;;;;;;0.10;0.10;;;;;;;10.19;68.32;100338.88;5065983;28;20032;-82
2023/01/13 01:20:36;;;;;;;0.20;0.20;;;;;;;10.23;68.56;100348.50;5065917;28;20032;-81
2023/01/13 01:23:03;;;;;;;0.10;0.10;;;;;;;10.19;68.95;100336.25;5058399;28;20107;-82
2023/01/13 01:25:30;;;;;;;1.15;1.15;;;;;;;10.12;69.31;100327.59;5053813;28;20033;-81
2023/01/13 01:27:57;;;;;;;0.20;0.20;;;;;;;10.11;69.03;100330.31;5053860;28;20032;-81
2023/01/13 01:30:23;;;;;;;0.15;0.15;;;;;;;10.13;68.77;100324.06;5055476;28;20486;-82
2023/01/13 01:32:49;;;;;;;0.10;0.10;;;;;;;10.14;68.84;100315.22;5056449;28;20025;-82
2023/01/13 01:35:15;;;;;;;0.30;0.30;;;;;;;10.09;68.84;100322.38;5055811;28;20033;-82
2023/01/13 01:37:41;;;;;;;0.15;0.15;;;;;;;10.17;68.62;100327.50;5060394;28;20033;-81
2023/01/13 01:40:08;;;;;;;0.10;0.10;;;;;;;10.18;68.93;100323.91;5056702;28;20386;-82
2023/01/13 01:45:23;;;;;;;0.10;0.10;;;;;;;10.06;68.84;100332.19;5055686;28;20036;-81
2023/01/13 01:47:58;;;;;;;0.10;0.10;;;;;;;10.03;68.94;100327.81;5056788;28;20028;-82
2023/01/13 01:50:24;;;;;;;0.40;0.40;;;;;;;9.92;68.59;100337.81;5048217;28;20025;-82
2023/01/13 01:52:58;;;;;;;0.38;0.38;;;;;;;9.95;68.41;100335.97;5056547;28;20041;-82
2023/01/13 01:55:29;;;;;;;1.05;1.05;;;;;;;10.07;68.21;100324.22;5046031;28;20037;-82
2023/01/13 02:00:39;;;;;;;0.10;0.10;;;;;;;10.01;68.02;100330.53;5135432;27;20382;-82
2023/01/13 02:03:07;;;;;;;0.73;0.73;;;;;;;9.94;67.74;100322.78;5141675;28;20031;-82
2023/01/13 02:05:33;;;;;;;0.10;0.10;;;;;;;9.94;68.10;100328.94;5129183;28;20479;-82
2023/01/13 02:08:00;;;;;;;0.13;0.13;;;;;;;9.92;68.10;100335.19;5118883;28;20035;-82
2023/01/13 02:10:28;;;;;;;1.02;0.98;;;;;;;9.82;67.83;100329.25;5110275;28;20034;-82
2023/01/13 02:12:59;;;;;;;2.15;2.05;;;;;;;9.91;67.83;100321.09;5110954;28;20035;-82
2023/01/13 02:15:41;;;;;;;0.20;0.20;;;;;;;9.97;67.45;100297.13;5111204;28;20023;-82
2023/01/13 02:31:44;;;;;;;5.53;3.40;;;;;;;10.14;65.28;100256.09;5093994;27;1880698;-82
2023/01/13 02:34:23;;;;;;;0.17;0.17;;;;;;;10.20;65.14;100274.44;5107519;28;20039;-82
2023/01/13 02:36:58;;;;;;;0.30;0.30;;;;;;;10.03;64.60;100269.59;5104725;28;20058;-82
2023/01/13 02:39:31;;;;;;;0.40;0.40;;;;;;;10.11;64.54;100272.91;5104692;28;20031;-82
2023/01/13 02:45:01;;;;;;;0.10;0.10;;;;;;;10.21;63.91;100276.19;5101638;28;20038;-82
2023/01/13 02:47:29;;;;;;;0.52;0.52;;;;;;;10.19;63.88;100284.19;5122812;28;20035;-82
2023/01/13 02:50:02;;;;;;;39.13;1.75;;;;;;;10.18;64.23;100286.84;5106516;28;20073;-82
2023/01/13 02:52:43;;;;;;;0.10;0.10;;;;;;;10.18;64.13;100274.50;5107314;28;20364;-82
2023/01/13 02:55:24;;;;;;;0.13;0.13;;;;;;;10.16;63.92;100278.09;5111282;28;20016;-82
2023/01/13 02:57:51;;;;;;;0.15;0.15;;;;;;;10.06;64.10;100285.41;5097862;28;20110;-82
2023/01/13 03:00:19;;;;;;;0.10;0.10;;;;;;;10.04;64.11;100280.16;5117257;28;20051;-81
2023/01/13 03:02:47;;;;;;;0.10;0.10;;;;;;;10.01;64.12;100282.03;5114237;28;20091;-82
2023/01/13 03:05:15;;;;;;;0.10;0.10;;;;;;;10.01;64.19;100279.38;5100360;28;20489;-82
2023/01/13 03:08:08;;;;;;;11.32;3.15;;;;;;;10.03;64.20;100281.06;5096831;28;20484;-82
2023/01/13 03:11:02;;;;;;;21.75;2.15;;;;;;;9.92;64.67;100275.19;5095515;28;20494;-82
2023/01/13 03:16:58;;;;;;;0.20;0.20;;;;;;;9.99;64.59;100274.13;5125358;27;1179492;-82
2023/01/13 03:19:50;;;;;;;1.13;1.13;;;;;;;10.00;64.94;100275.84;5145839;27;20291;-81
2023/01/13 03:22:26;;;;;;;0.10;0.10;;;;;;;9.97;65.07;100281.22;5117185;28;20097;-82
2023/01/13 03:25:03;;;;;;;0.20;0.20;;;;;;;9.94;65.29;100276.00;5129557;27;20027;-82
2023/01/13 03:30:33;;;;;;;0.10;0.10;;;;;;;10.08;65.38;100282.72;5116003;27;20378;-82
2023/01/13 03:33:09;;;;;;;0.20;0.20;;;;;;;10.05;65.80;100281.03;5123051;28;20063;-82
2023/01/13 03:35:42;;;;;;;0.20;0.20;;;;;;;9.99;66.00;100274.13;5112169;28;20552;-82
2023/01/13 03:38:18;;;;;;;0.10;0.10;;;;;;;10.00;66.29;100273.19;5118009;28;20031;-82
2023/01/13 03:40:49;;;;;;;0.20;0.20;;;;;;;9.99;66.26;100268.84;5118647;28;20110;-82
2023/01/13 03:46:16;;;;;;;0.10;0.10;;;;;;;9.86;66.86;100278.88;5114325;28;20403;-82
2023/01/13 03:48:45;;;;;;;0.20;0.20;;;;;;;9.87;66.88;100269.16;5124107;28;20012;-81
2023/01/13 03:51:17;;;;;;;0.10;0.10;;;;;;;9.92;66.89;100283.13;5111639;28;20085;-82
2023/01/13 03:53:51;;;;;;;0.10;0.10;;;;;;;9.76;67.42;100279.13;5108357;28;20467;-82
2023/01/13 03:56:26;;;;;;;2.17;0.65;;;;;;;9.73;67.29;100277.44;5100035;28;20667;-81
2023/01/13 03:58:53;;;;;;;0.20;0.20;;;;;;;9.78;67.04;100275.56;5119265;28;20074;-82
2023/01/13 04:01:28;;;;;;;1.77;1.23;;;;;;;9.82;66.75;100276.31;5118933;28;20045;-81
2023/01/13 04:04:06;;;;;;;0.20;0.20;;;;;;;9.82;66.61;100269.28;5128590;28;20460;-81
2023/01/13 04:09:18;;;;;;;0.13;0.13;;;;;;;9.76;66.54;100260.59;5084467;27;1879232;-82
2023/01/13 04:11:53;;;;;;;0.10;0.10;;;;;;;9.71;66.14;100276.63;5122285;28;20057;-82
2023/01/13 04:14:20;;;;;;;0.10;0.10;;;;;;;9.63;65.94;100271.53;5128620;28;20026;-82
2023/01/13 04:16:48;;;;;;;0.40;0.40;;;;;;;9.74;65.72;100281.81;5114561;28;20391;-81
2023/01/13 04:19:14;;;;;;;0.20;0.20;;;;;;;9.71;65.33;100282.78;5109332;28;20034;-82
2023/01/13 04:21:41;;;;;;;0.10;0.10;;;;;;;9.67;64.95;100269.66;5100272;28;20052;-82
2023/01/13 04:24:08;;;;;;;0.10;0.10;;;;;;;9.66;64.72;100276.75;5129530;28;20028;-82
2023/01/13 04:26:34;;;;;;;0.10;0.10;;;;;;;9.69;64.38;100281.97;5114500;28;20038;-82
2023/01/13 04:29:00;;;;;;;0.15;0.15;;;;;;;9.57;64.51;100284.91;5117147;28;20028;-82
2023/01/13 04:31:26;;;;;;;0.15;0.15;;;;;;;9.71;64.49;100284.56;5099222;28;20024;-81
2023/01/13 04:33:52;;;;;;;0.20;0.20;;;;;;;9.75;64.32;100280.06;5114539;28;20031;-81
2023/01/13 04:36:23;;;;;;;0.10;0.10;;;;;;;9.80;64.16;100283.47;5111868;28;20153;-81
2023/01/13 04:38:50;;;;;;;0.98;0.98;;;;;;;9.78;64.32;100287.91;5122522;28;20031;-81
2023/01/13 04:41:16;;;;;;;0.20;0.20;;;;;;;9.82;64.44;100286.91;5120660;28;20055;-82
2023/01/13 04:43:42;;;;;;;0.10;0.10;;;;;;;9.69;64.36;100295.19;5118653;28;20077;-81
2023/01/13 04:46:08;;;;;;;0.20;0.20;;;;;;;9.76;64.34;100305.59;5123738;28;20034;-82
2023/01/13 04:48:34;;;;;;;0.10;0.10;;;;;;;9.83;64.35;100299.25;5106552;28;20066;-82
2023/01/13 04:51:01;;;;;;;0.47;0.47;;;;;;;9.71;64.86;100311.88;5109363;28;20031;-82
2023/01/13 04:53:27;;;;;;;0.13;0.13;;;;;;;9.88;64.68;100295.59;5106466;28;20119;-81
2023/01/13 04:55:53;;;;;;;0.10;0.10;;;;;;;9.89;64.93;100285.84;5122039;28;20028;-82
2023/01/13 04:58:20;;;;;;;0.20;0.20;;;;;;;9.99;64.96;100287.38;5127632;28;20107;-82
2023/01/13 05:00:46;;;;;;;0.10;0.10;;;;;;;9.95;65.04;100290.97;5119501;28;20020;-82
2023/01/13 05:03:12;;;;;;;0.10;0.10;;;;;;;9.93;65.08;100289.28;5103477;28;20032;-82
2023/01/13 05:05:38;;;;;;;0.10;0.10;;;;;;;9.91;64.94;100304.34;5096802;28;20031;-81
2023/01/13 05:08:05;;;;;;;1.75;1.65;;;;;;;10.00;64.71;100299.66;5108049;28;20126;-82
2023/01/13 05:10:31;;;;;;;0.10;0.10;;;;;;;10.13;64.50;100286.09;5101085;28;20031;-81
2023/01/13 05:18:29;;;;;;;4.45;2.92;;;;;;;9.90;64.28;100279.66;5103132;28;20024;-81
2023/01/13 05:20:55;;;;;;;0.30;0.30;;;;;;;9.89;63.88;100288.50;5086878;28;20450;-81
2023/01/13 05:26:23;;;;;;;0.10;0.10;;;;;;;9.85;63.81;100282.41;5088136;28;20040;-82
2023/01/13 05:28:49;;;;;;;0.10;0.10;;;;;;;9.86;63.62;100284.16;5108229;28;20088;-81
2023/01/13 05:31:15;;;;;;;1.77;1.73;;;;;;;9.91;63.75;100276.09;5085161;28;20025;-81
2023/01/13 05:33:41;;;;;;;0.10;0.10;;;;;;;9.78;63.77;100283.50;5092009;28;20032;-81
2023/01/13 05:36:07;;;;;;;0.10;0.10;;;;;;;9.83;63.58;100278.06;5085999;28;20040;-81
2023/01/13 05:38:33;;;;;;;0.10;0.10;;;;;;;9.70;63.72;100290.75;5090490;28;20043;-81
2023/01/13 05:43:45;;;;;;;0.20;0.20;;;;;;;9.75;63.78;100295.94;5110307;28;20032;-81
2023/01/13 05:46:11;;;;;;;0.10;0.10;;;;;;;9.83;63.52;100294.84;5103214;28;20036;-81
2023/01/13 05:48:41;;;;;;;0.10;0.10;;;;;;;9.81;63.71;100294.00;5088914;28;20036;-81
2023/01/13 05:51:10;;;;;;;0.20;0.20;;;;;;;9.71;63.36;100303.09;5092028;28;20035;-81
2023/01/13 05:53:39;;;;;;;0.10;0.10;;;;;;;9.90;63.36;100308.75;5096246;28;20039;-81
2023/01/13 05:56:06;;;;;;;0.20;0.20;;;;;;;9.83;63.16;100301.88;5108935;28;20042;-81
2023/01/13 05:58:33;;;;;;;0.73;0.73;;;;;;;9.82;62.97;100302.78;5101583;28;20531;-81
2023/01/13 06:01:05;;;;;;;0.10;0.10;;;;;;;9.93;63.02;100306.06;5081289;28;20403;-81
2023/01/13 06:03:31;;;;;;;0.98;0.93;;;;;;;9.97;62.52;100301.53;5078845;28;20032;-81
2023/01/13 06:06:00;;;;;;;0.10;0.10;;;;;;;9.91;62.01;100313.16;5092802;28;20024;-81
2023/01/13 06:08:26;;;;;;;0.65;0.65;;;;;;;9.97;62.02;100307.69;5078113;28;20523;-81
2023/01/13 06:10:53;;;;;;;0.63;0.63;;;;;;;9.88;61.60;100310.56;5087390;28;20031;-81
2023/01/13 06:13:19;;;;;;;4.57;0.77;;;;;;;9.91;60.98;100289.34;5113038;28;20036;-81
2023/01/13 06:15:45;;;;;;;0.20;0.20;;;;;;;10.01;60.83;100298.75;5099652;28;20023;-81
2023/01/13 06:18:11;;;;;;;0.20;0.20;;;;;;;10.00;60.83;100312.91;5105149;28;20089;-81
2023/01/13 06:20:37;;;;;;;0.20;0.20;;;;;;;9.95;60.97;100298.91;5088229;28;20037;-81
2023/01/13 06:23:06;;;;;;;0.10;0.10;;;;;;;10.02;60.66;100305.78;5077209;28;20115;-81
2023/01/13 06:26:03;;;;;;;0.20;0.20;;;;;;;10.13;60.45;100323.16;5077620;28;20039;-81
2023/01/13 06:28:29;;;;;;;0.20;0.20;;;;;;;10.15;60.40;100326.66;5108468;28;20042;-81
2023/01/13 06:30:58;;;;;;;0.20;0.20;;;;;;;10.12;60.33;100324.97;5085455;28;20090;-81
2023/01/13 06:33:31;;;;;;;0.10;0.10;;;;;;;10.12;60.21;100316.13;5082201;28;20033;-81
2023/01/13 06:35:59;;;;;;;;;;;;;;;10.32;59.75;100329.72;5109997;28;20082;-81
2023/01/13 06:38:27;;;;;;;0.10;0.10;;;;;;;10.27;59.94;100326.31;5091566;28;19912;-81
2023/01/13 06:40:54;;;;;;;0.10;0.10;;;;;;;10.27;59.87;100331.63;5087446;28;20092;-81
2023/01/13 06:43:20;;;;;;;0.10;0.10;;;;;;;10.29;60.01;100339.50;5097393;28;20120;-81
2023/01/13 06:45:51;;;;;;;0.10;0.10;;;;;;;10.38;60.45;100322.53;5096405;28;20040;-81
2023/01/13 06:48:20;;;;;;;0.50;0.50;;;;;;;10.34;60.54;100338.50;5086429;28;20495;-81
2023/01/13 06:50:47;;;;;;;0.10;0.10;;;;;;;10.29;60.86;100335.09;5090495;28;20074;-81
2023/01/13 06:53:13;;;;;;;0.10;0.10;;;;;;;10.28;61.14;100345.72;5099922;28;20461;-81
2023/01/13 06:55:39;;;;;;;0.10;0.10;;;;;;;10.36;61.09;100344.63;5088462;28;20054;-81
2023/01/13 06:58:05;;;;;;;0.20;0.20;;;;;;;10.40;60.96;100341.91;5093458;28;20020;-81
2023/01/13 07:00:34;;;;;;;0.10;0.10;;;;;;;10.35;60.40;100334.94;5085667;28;20050;-81
2023/01/13 07:03:17;;;;;;;2.05;1.95;;;;;;;10.38;60.26;100323.44;5090874;28;20399;-80
2023/01/13 07:05:51;;;;;;;0.20;0.20;;;;;;;10.46;59.93;100333.81;5086964;28;20023;-80
2023/01/13 07:08:17;;;;;;;0.10;0.10;;;;;;;10.41;59.83;100347.16;5083727;28;20287;-80
2023/01/13 07:10:46;;;;;;;0.10;0.10;;;;;;;10.48;60.13;100337.25;5100356;28;20028;-80
2023/01/13 07:16:01;;;;;;;0.10;0.10;;;;;;;10.52;58.93;100358.31;5086114;28;20072;-81
2023/01/13 07:18:30;;;;;;;0.20;0.20;;;;;;;10.54;59.03;100336.22;5090089;28;20437;-80
2023/01/13 07:20:59;;;;;;;0.90;0.90;;;;;;;10.40;58.46;100344.56;5091896;28;20519;-81
2023/01/13 07:23:27;;;;;;;0.20;0.20;;;;;;;10.49;59.46;100336.34;5090903;28;20051;-81
2023/01/13 07:25:56;;;;;;;0.10;0.10;;;;;;;10.41;58.45;100346.31;5115225;28;20015;-81
2023/01/13 07:28:23;;;;;;;0.30;0.30;;;;;;;10.47;58.23;100356.72;5121824;28;20426;-81
2023/01/13 07:30:49;;;;;;;0.10;0.10;;;;;;;10.41;57.76;100356.91;5110371;28;20032;-82
2023/01/13 07:33:17;;;;;;;1.38;1.02;;;;;;;10.48;57.43;100361.09;5111639;28;20028;-82
2023/01/13 07:35:43;;;;;;;0.10;0.10;;;;;;;10.65;57.48;100342.97;5111541;28;20055;-82
2023/01/13 07:38:10;;;;;;;2.00;1.38;;;;;;;10.71;58.04;100346.38;5118394;28;20024;-82
2023/01/13 07:40:38;;;;;;;0.10;0.10;;;;;;;10.68;57.65;100356.13;5105342;28;20024;-82
2023/01/13 07:43:35;;;;;;;0.10;0.10;;;;;;;10.48;57.81;100369.03;5108819;28;20035;-82
2023/01/13 07:45:57;;;;;;;0.10;0.10;;;;;;;10.68;57.28;100355.25;5076635;28;20098;-83
2023/01/13 07:48:23;;;;;;;0.20;0.20;;;;;;;10.66;57.51;100359.72;5078645;28;20037;-81
2023/01/13 07:50:49;;;;;;;0.10;0.10;;;;;;;10.51;57.14;100376.91;5077230;28;20154;-82
2023/01/13 07:53:16;;;;;;;0.10;0.10;;;;;;;10.61;57.00;100362.50;5076022;28;20532;-81
2023/01/13 07:55:43;;;;;;;0.20;0.20;;;;;;;10.70;57.49;100371.13;5106842;28;20062;-82
2023/01/13 07:58:10;;;;;;;0.10;0.10;;;;;;;10.62;57.29;100380.13;5093969;28;20031;-82
2023/01/13 08:00:37;;;;;;;0.38;0.38;;;;;;;10.63;56.91;100370.41;5116982;28;20027;-81
2023/01/13 08:03:03;;;;;;;0.25;0.22;;;;;;;10.81;57.46;100371.69;5110950;28;20114;-81
2023/01/13 08:05:30;;;;;;;0.40;0.40;;;;;;;10.75;57.13;100385.09;5117440;28;20088;-81
2023/01/13 08:07:56;;;;;;;0.10;0.10;;;;;;;10.88;56.99;100373.25;5102168;28;20123;-81
2023/01/13 08:10:22;;;;;;;0.15;0.15;;;;;;;10.81;56.80;100401.69;5105168;28;20121;-82
2023/01/13 08:13:19;;;;;;;0.40;0.40;;;;;;;10.93;56.55;100378.38;5117132;28;20024;-82
2023/01/13 08:15:34;;;;;;;0.00;0.00;;;;;;;10.87;56.36;100382.09;5099839;28;20036;-81
2023/01/13 08:18:00;;;;;;;0.10;0.10;;;;;;;10.99;56.59;100394.13;5083298;28;20024;-81
2023/01/13 08:20:26;;;;;;;0.10;0.10;;;;;;;11.04;56.10;100412.53;5115881;28;20028;-82
2023/01/13 08:22:57;;;;;;;0.10;0.10;;;;;;;10.90;56.48;100399.69;5110082;28;20402;-81
2023/01/13 08:25:25;;;;;;;0.20;0.20;;;;;;;10.84;57.03;100412.22;5117229;28;20047;-81
2023/01/13 08:27:51;;;;;;;3.20;2.30;;;;;;;10.98;56.64;100409.16;5119042;28;20571;-80
2023/01/13 08:30:18;;;;;;;0.20;0.20;;;;;;;10.78;57.66;100415.03;5134684;28;20048;-80
2023/01/13 08:32:46;;;;;;;0.25;0.25;;;;;;;10.67;59.36;100420.63;5136382;28;20552;-80
2023/01/13 08:35:15;;;;;;;1.00;0.77;;;;;;;10.54;59.56;100418.34;5136641;28;20027;-81
2023/01/13 08:37:42;;;;;;;0.63;0.63;;;;;;;10.37;61.27;100422.31;5122410;28;20015;-81
2023/01/13 08:40:09;;;;;;;0.20;0.20;;;;;;;10.15;62.27;100411.38;5123748;28;20035;-81
2023/01/13 08:42:35;;;;;;;0.10;0.10;;;;;;;10.18;62.49;100437.75;5136543;28;20019;-82
2023/01/13 08:45:02;;;;;;;0.20;0.20;;;;;;;10.05;63.47;100416.00;5130878;28;20118;-82
2023/01/13 08:47:28;;;;;;;0.20;0.20;;;;;;;9.76;64.66;100424.63;5102071;28;20035;-81
2023/01/13 08:49:54;;;;;;;0.15;0.15;;;;;;;9.87;65.03;100427.94;5092807;28;20047;-82
2023/01/13 08:52:21;;;;;;;0.20;0.20;;;;;;;9.71;65.07;100425.63;5098297;28;20028;-83
2023/01/13 08:54:47;;;;;;;0.20;0.20;;;;;;;9.69;65.55;100429.22;5117096;28;20062;-83
2023/01/13 08:57:14;;;;;;;0.20;0.20;;;;;;;9.70;65.41;100437.09;5120260;28;20039;-83
2023/01/13 08:59:42;;;;;;;0.10;0.10;;;;;;;9.60;66.40;100440.03;5119530;28;20375;-83
2023/01/13 09:02:14;;;;;;;0.10;0.10;;;;;;;9.61;67.28;100445.28;5094499;28;20243;-82
2023/01/13 09:04:40;;;;;;;0.10;0.10;;;;;;;9.36;67.12;100459.03;5103848;28;20035;-83
2023/01/13 09:07:07;;;;;;;0.10;0.10;;;;;;;9.47;67.19;100449.97;5109729;28;20071;-82
2023/01/13 09:09:33;;;;;;;0.10;0.10;;;;;;;9.48;67.24;100447.31;5116699;28;20047;-82
2023/01/13 09:14:45;;;;;;;0.10;0.10;;;;;;;9.44;67.91;100466.78;5112035;28;20028;-82
2023/01/13 09:17:11;;;;;;;0.10;0.10;;;;;;;9.52;67.72;100461.31;5118540;28;20045;-82
2023/01/13 09:19:37;;;;;;;0.10;0.10;;;;;;;9.49;67.41;100462.25;5096791;28;20028;-82
2023/01/13 09:22:04;;;;;;;1.20;1.10;;;;;;;9.54;67.44;100464.81;5085676;28;20032;-81
2023/01/13 09:24:30;;;;;;;0.10;0.10;;;;;;;9.45;67.40;100472.97;5091916;28;20429;-81
2023/01/13 09:26:56;;;;;;;2.72;2.38;;;;;;;9.66;66.96;100472.47;5085736;28;20062;-82
2023/01/13 09:29:23;;;;;;;0.10;0.10;;;;;;;9.70;66.31;100474.16;5088250;28;20686;-82
2023/01/13 09:31:49;;;;;;;0.22;0.22;;;;;;;9.70;66.18;100468.00;5091177;28;20028;-82
2023/01/13 09:37:05;;;;;;;3.30;1.05;;;;;;;9.93;65.09;100475.41;5077719;28;20037;-82
2023/01/13 09:39:32;;;;;;;2.85;2.58;;;;;;;10.00;65.09;100477.00;5105256;28;20447;-82
2023/01/13 09:48:12;;;;;;;1.43;1.40;;;;;;;10.09;64.52;100502.38;5127724;27;1160020;-81
2023/01/13 09:53:37;;;;;;;2.47;2.30;;;;;;;10.08;63.95;100499.78;5110222;27;1168827;-80
2023/01/13 09:56:04;;;;;;;0.10;0.10;;;;;;;10.13;63.74;100508.47;5124544;27;20703;-81
2023/01/13 09:58:31;;;;;;;0.10;0.10;;;;;;;10.14;63.52;100545.53;5123154;28;20031;-80
2023/01/13 10:01:10;;;;;;;0.10;0.10;;;;;;;10.20;62.88;100526.84;5131696;27;20090;-79
2023/01/13 10:03:36;;;;;;;0.10;0.10;;;;;;;10.22;62.72;100513.56;5132975;27;20034;-79
2023/01/13 10:08:42;;;;;;;0.10;0.10;;;;;;;10.25;63.14;100533.81;5113946;27;20362;-80
2023/01/13 10:13:56;;;;;;;0.50;0.50;;;;;;;10.32;64.03;100536.25;5112723;27;20391;-81
2023/01/13 10:19:16;;;;;;;0.97;0.97;;;;;;;10.06;64.22;100555.41;5119098;27;1173633;-80
2023/01/13 10:22:06;;;;;;;1.85;1.65;;;;;;;10.19;64.18;100551.56;5132306;27;20291;-80
2023/01/13 10:25:01;;;;;;;0.20;0.20;;;;;;;10.21;63.90;100556.84;5124474;28;20067;-80
2023/01/13 10:27:38;;;;;;;0.73;0.73;;;;;;;10.20;63.72;100542.72;5116624;28;20047;-79
2023/01/13 10:30:30;;;;;;;0.10;0.10;;;;;;;10.33;63.28;100555.66;5113198;28;20084;-80
2023/01/13 10:32:58;;;;;;;0.10;0.10;;;;;;;10.30;62.95;100564.53;5112728;28;20066;-80
2023/01/13 10:38:25;;;;;;;5.38;0.98;;;;;;;10.44;62.04;100582.81;5086433;27;1862985;-81
2023/01/13 10:40:59;;;;;;;0.20;0.20;;;;;;;10.45;61.57;100571.28;5120238;28;20036;-80
2023/01/13 10:43:27;;;;;;;0.10;0.10;;;;;;;10.36;61.11;100585.63;5112430;28;20399;-80
2023/01/13 10:57:20;;;;;;;0.10;0.10;;;;;;;10.66;60.44;100587.59;5120678;27;20890;-79
2023/01/13 10:59:47;;;;;;;0.20;0.20;;;;;;;10.72;60.28;100594.53;5134169;27;20031;-77
2023/01/13 11:02:23;;;;;;;0.15;0.15;;;;;;;10.70;60.28;100594.53;5131190;28;20027;-77
2023/01/13 11:07:38;;;;;;;0.10;0.10;;;;;;;10.82;60.02;100604.84;5113738;27;1167531;-80
2023/01/13 11:10:18;;;;;;;0.40;0.40;;;;;;;10.78;59.64;100594.34;5123843;27;20281;-79
2023/01/13 11:12:56;;;;;;;0.30;0.30;;;;;;;10.74;59.82;100595.34;5133031;27;20031;-80
2023/01/13 11:15:32;;;;;;;0.10;0.10;;;;;;;10.67;60.17;100592.84;5116805;27;20107;-78
2023/01/13 11:18:08;;;;;;;0.10;0.10;;;;;;;10.76;59.61;100585.59;5117646;28;20095;-79
2023/01/13 11:20:40;;;;;;;0.20;0.20;;;;;;;10.80;59.54;100613.75;5116462;28;20089;-80
2023/01/13 11:23:16;;;;;;;0.20;0.20;;;;;;;10.91;59.98;100613.50;5117543;28;20027;-79
2023/01/13 11:25:47;;;;;;;0.10;0.10;;;;;;;10.83;59.59;100605.72;5109711;28;20028;-78
2023/01/13 11:31:33;;;;;;;0.10;0.10;;;;;;;10.81;59.64;100628.75;5074943;28;20382;-79
2023/01/13 11:34:06;;;;;;;0.10;0.10;;;;;;;10.72;59.46;100642.22;5079789;28;20501;-79
2023/01/13 11:36:46;;;;;;;4.03;0.82;;;;;;;10.68;58.78;100676.72;5079703;28;20092;-79
2023/01/13 11:39:22;;;;;;;9.23;3.50;;;;;;;10.85;58.86;100654.25;5075191;28;20021;-78
2023/01/13 11:42:23;;;;;;;0.10;0.10;;;;;;;10.87;58.93;100635.69;5072870;28;20025;-79
2023/01/13 11:47:35;;;;;;;0.10;0.10;;;;;;;11.03;59.15;100633.50;5118492;27;20743;-79
2023/01/13 11:50:06;;;;;;;0.30;0.30;;;;;;;10.96;59.77;100648.69;5115531;28;20031;-79
2023/01/13 11:55:48;;;;;;;0.10;0.10;;;;;;;11.07;59.44;100673.16;5074725;28;20382;-79
2023/01/13 11:58:42;;;;;;;0.10;0.10;;;;;;;11.07;59.11;100645.78;5054805;28;20039;-79
2023/01/13 12:04:16;;;;;;;0.10;0.10;;;;;;;11.07;59.02;100659.91;5094044;27;20796;-80
2023/01/13 12:06:44;;;;;;;0.22;0.22;;;;;;;11.22;58.83;100648.03;5088524;28;20036;-79
2023/01/13 12:20:40;;;;;;;0.10;0.10;;;;;;;11.29;57.12;100709.72;5130985;27;20391;-79
2023/01/13 12:23:22;;;;;;;0.10;0.10;;;;;;;11.37;57.09;100675.09;5115662;28;20059;-78
2023/01/13 12:25:56;;;;;;;0.30;0.30;;;;;;;11.36;56.54;100683.94;5109626;28;20027;-79
2023/01/13 12:28:27;;;;;;;0.85;0.85;;;;;;;11.37;56.62;100680.38;5100849;28;20550;-79
2023/01/13 12:30:59;;;;;;;0.20;0.20;;;;;;;11.24;56.12;100696.63;5098267;28;20032;-79
2023/01/13 12:47:45;;;;;;;0.10;0.10;;;;;;;11.27;57.00;100727.50;5113563;27;20411;-79
2023/01/13 12:53:28;;;;;;;0.10;0.10;;;;;;;11.34;56.65;100745.00;5073194;28;20406;-80
2023/01/13 12:56:34;;;;;;;0.10;0.10;;;;;;;11.40;56.88;100720.09;5047562;28;20483;-79
2023/01/13 13:04:51;;;;;;;0.10;0.10;;;;;;;11.27;56.48;100738.97;5075362;28;20398;-80
2023/01/13 13:07:40;;;;;;;0.77;0.77;;;;;;;11.24;57.15;100741.69;5051732;28;20040;-78
2023/01/13 13:10:18;;;;;;;0.20;0.20;;;;;;;11.32;56.98;100747.66;5055340;28;20115;-81
2023/01/13 13:15:24;;;;;;;0.10;0.10;;;;;;;11.37;56.72;100749.34;5076537;28;20889;-78
2023/01/13 13:21:11;;;;;;;0.40;0.40;;;;;;;11.46;56.52;100771.22;5105609;27;1205730;-79
2023/01/13 13:23:44;;;;;;;0.13;0.13;;;;;;;11.28;57.21;100756.63;5125485;28;20346;-78
2023/01/13 13:26:34;;;;;;;0.10;0.10;;;;;;;11.41;56.26;100788.16;5126820;27;20015;-79
2023/01/13 13:32:26;;;;;;;0.20;0.20;;;;;;;11.38;56.35;100788.25;5127574;27;1171530;-79
2023/01/13 13:46:47;;;;;;;0.10;0.10;;;;;;;11.63;57.58;100788.50;5094440;28;20040;-79
2023/01/13 13:49:20;;;;;;;0.20;0.20;;;;;;;11.56;57.23;100803.69;5092607;28;20021;-79
2023/01/13 13:52:17;;;;;;;0.10;0.10;;;;;;;11.54;57.61;100847.97;5086669;28;20032;-79
2023/01/13 13:54:48;;;;;;;1.60;1.25;;;;;;;11.44;57.69;100804.88;5086495;28;20035;-79
2023/01/13 13:57:21;;;;;;;4.32;1.55;;;;;;;11.47;57.84;100814.53;5094359;28;20028;-79
2023/01/13 13:59:53;;;;;;;2.45;2.30;;;;;;;11.45;56.82;100811.94;5096119;28;20033;-79
2023/01/13 14:02:28;;;;;;;0.10;0.10;;;;;;;11.50;56.86;100825.06;5097271;28;20024;-79
2023/01/13 14:07:48;;;;;;;2.80;2.55;;;;;;;11.52;57.07;100846.28;5117071;27;20761;-79
2023/01/13 14:10:27;;;;;;;0.20;0.20;;;;;;;11.38;56.75;100858.06;5114831;28;20028;-79
2023/01/13 14:12:53;;;;;;;0.10;0.10;;;;;;;11.56;57.09;100840.84;5116996;28;20028;-79
2023/01/13 14:15:32;;;;;;;0.10;0.10;;;;;;;11.49;57.04;100844.56;5113751;28;20456;-79
2023/01/13 14:18:00;;;;;;;0.10;0.10;;;;;;;11.54;57.26;100849.75;5106971;28;20585;-79
2023/01/13 14:20:27;;;;;;;0.10;0.10;;;;;;;11.29;57.40;100875.06;5111051;28;20118;-79